Flight Track Log - Related Links

Times and Time Zones

All times are in EDT time to prevent confusion due to time zone crossing. See the SWA134 flight status page for this flight to view local times or setup timezone preferences in your user account.

Time Position Orientation Groundspeed Altitude Reporting Facility
EDT Latitude Longitude Course Direction KTS MPH feet Rate Location/Type
Wed 09:45:44 PM 39.1833 -76.7500 252° West 198 228 2,000  Level Potomac TRACON
Wed 09:47:19 PM 39.1983 -76.8744 279° West 241 277 6,000 2,784 Climbing Washington Center
Wed 09:48:17 PM 39.2119 -76.9739 280° West 266 306 9,100 2,723 Climbing Washington Center
Wed 09:49:18 PM 39.2106 -77.0836 269° West 295 339 11,400 2,380 Climbing Washington Center
Wed 09:50:18 PM 39.1736 -77.1928 246° West 326 375 13,900 2,723 Climbing Washington Center
Wed 09:51:00 PM 38.9951 -77.3362 252° West  Level FlightAware Approximate
Wed 09:51:17 PM 39.0894 -77.2603 212° Southwest 334 384 16,800  Level Washington Center
Wed 09:52:18 PM 39.0047 -77.3467 218° Southwest 353 406 19,100 2,281 Climbing Washington Center
Wed 09:53:18 PM 38.9756 -77.4847 255° West 377 434 21,400 2,380 Climbing Washington Center
Wed 09:54:19 PM 38.9481 -77.6469 258° West 397 457 23,900 2,033 Climbing Washington Center
Wed 09:55:19 PM 38.9225 -77.7928 257° West 428 493 25,500 1,729 Climbing Washington Center
Wed 09:56:17 PM 38.8986 -77.9494 259° West 440 506 27,300 1,714 Climbing Washington Center
Wed 09:57:18 PM 38.8706 -78.1058 257° West 447 514 28,900 1,750 Climbing Washington Center
Wed 09:58:17 PM 38.8525 -78.2625 262° West 447 514 30,800 1,750 Climbing Washington Center
Wed 09:59:18 PM 38.8508 -78.4225 269° West 447 514 32,400 1,525 Climbing Washington Center
Wed 10:00:19 PM 38.8492 -78.5797 269° West 441 507 33,900 1,210 Climbing Washington Center
Wed 10:01:17 PM 38.8494 -78.7369 270° West 441 507 34,800 559 Climbing Washington Center
Wed 10:02:17 PM 38.8514 -78.8917 271° West 441 507 35,000 98 Climbing Washington Center
Wed 10:03:19 PM 38.8511 -79.0517 270° West 441 507 35,000  Level Washington Center
Wed 10:04:19 PM 38.8528 -79.2089 271° West 441 507 35,000  Level Washington Center
Wed 10:05:17 PM 38.8522 -79.3636 270° West 441 507 35,000  Level Washington Center
Wed 10:06:18 PM 38.8533 -79.5183 271° West 441 507 35,000  Level Washington Center
Wed 10:07:18 PM 38.8564 -79.6783 271° West 447 514 35,000  Level Washington Center
Wed 10:08:19 PM 38.8578 -79.8197 271° West 442 509 35,000 353 Level Washington Center
Wed 10:09:17 PM 38.8567 -79.9692 269° West 436 502 35,700 357 Climbing Washington Center
Wed 10:11:07 PM 38.8328 -80.2306 263° West 434 499 36,000 105 Climbing Indianapolis Center
Wed 10:12:08 PM 38.7789 -80.4033 248° West 435 501 36,000  Level Indianapolis Center
Wed 10:13:09 PM 38.7364 -80.5442 249° West 424 488 36,000  Level Indianapolis Center
Wed 10:14:10 PM 38.6922 -80.6864 248° West 428 493 36,000  Level Indianapolis Center
Wed 10:15:11 PM 38.6486 -80.8272 248° West 426 490 36,000  Level Indianapolis Center
Wed 10:16:13 PM 38.6044 -80.9689 248° West 427 491 36,000  Level Indianapolis Center
Wed 10:17:14 PM 38.5603 -81.1103 248° West 427 491 36,000  Level Indianapolis Center
Wed 10:18:15 PM 38.5147 -81.2533 248° West 429 494 36,000  Level Indianapolis Center
Wed 10:19:16 PM 38.4692 -81.3967 248° West 430 495 36,000  Level Indianapolis Center
Wed 10:20:17 PM 38.4239 -81.5408 248° West 430 495 36,000  Level Indianapolis Center
Wed 10:21:18 PM 38.3775 -81.6847 248° West 434 499 36,000  Level Indianapolis Center
Wed 10:22:19 PM 38.3344 -81.8256 249° West 426 490 36,000  Level Indianapolis Center
Wed 10:23:21 PM 38.2950 -81.9675 251° West 425 489 36,000  Level Indianapolis Center
Wed 10:24:22 PM 38.2542 -82.1092 250° West 425 489 36,000  Level Indianapolis Center
Wed 10:25:23 PM 38.2144 -82.2539 251° West 430 495 36,000  Level Indianapolis Center
Wed 10:26:24 PM 38.1731 -82.3978 250° West 433 498 36,000  Level Indianapolis Center
Wed 10:27:25 PM 38.1300 -82.5478 250° West 437 503 36,000  Level Indianapolis Center
Wed 10:28:26 PM 38.0892 -82.6878 250° West 427 491 36,000  Level Indianapolis Center
Wed 10:29:27 PM 38.0417 -82.8544 250° West 430 495 36,000  Level Indianapolis Center
Wed 10:30:29 PM 38.0006 -82.9958 250° West 426 490 36,000  Level Indianapolis Center
Wed 10:31:30 PM 37.9594 -83.1361 250° West 426 490 36,000  Level Indianapolis Center
Wed 10:32:31 PM 37.9181 -83.2758 249° West 424 488 36,000  Level Indianapolis Center
Wed 10:33:32 PM 37.8772 -83.4147 250° West 423 487 36,000  Level Indianapolis Center
Wed 10:34:33 PM 37.8358 -83.5547 250° West 425 489 36,000  Level Indianapolis Center
Wed 10:35:35 PM 37.7939 -83.6931 249° West 424 488 36,000  Level Indianapolis Center
Wed 10:36:36 PM 37.7456 -83.8553 249° West 423 487 36,000  Level Indianapolis Center
Wed 10:37:37 PM 37.7031 -83.9919 249° West 420 483 36,000  Level Indianapolis Center
Wed 10:38:39 PM 37.6619 -84.1292 249° West 419 482 36,000  Level Indianapolis Center
Wed 10:39:40 PM 37.6194 -84.2678 249° West 423 487 36,000  Level Indianapolis Center
Wed 10:40:41 PM 37.5783 -84.4033 249° West 418 481 36,000  Level Indianapolis Center
Wed 10:41:43 PM 37.5361 -84.5408 249° West 420 483 36,000  Level Indianapolis Center
Wed 10:42:44 PM 37.4936 -84.6778 249° West 421 484 36,000  Level Indianapolis Center
Wed 10:43:45 PM 37.4503 -84.8172 249° West 426 490 36,000  Level Indianapolis Center
Wed 10:44:46 PM 37.3989 -84.9792 248° West 426 490 36,000  Level Indianapolis Center
Wed 10:45:48 PM 37.3558 -85.1147 248° West 421 484 36,000  Level Indianapolis Center
Wed 10:46:49 PM 37.3122 -85.2503 248° West 421 484 36,000  Level Indianapolis Center
Wed 10:47:50 PM 37.2692 -85.3864 248° West 421 484 36,000  Level Indianapolis Center
Wed 10:48:52 PM 37.2247 -85.5325 249° West 425 489 36,000  Level Indianapolis Center
Wed 10:49:53 PM 37.1808 -85.6700 248° West 422 486 36,000  Level Indianapolis Center
Wed 10:50:20 PM 37.1583 -85.7372 247° West 434 499 36,000  Level Memphis Center
Wed 10:51:20 PM 37.1211 -85.8589 249° West 426 490 36,000  Level Memphis Center
Wed 10:52:20 PM 37.0761 -85.9967 248° West 417 480 36,000  Level Memphis Center
Wed 10:53:20 PM 37.0306 -86.1292 247° West 423 487 36,000  Level Memphis Center
Wed 10:54:20 PM 36.9814 -86.2797 248° West 423 487 36,000  Level Memphis Center
Wed 10:55:20 PM 36.9436 -86.3983 248° West 418 481 36,000  Level Memphis Center
Wed 10:56:20 PM 36.8981 -86.5356 247° West 423 487 36,000  Level Memphis Center
Wed 10:57:20 PM 36.8478 -86.6675 245° Southwest 423 487 36,000  Level Memphis Center
Wed 10:58:20 PM 36.7997 -86.8047 246° West 428 493 36,000  Level Memphis Center
Wed 10:59:20 PM 36.7494 -86.9414 245° Southwest 428 493 36,000  Level Memphis Center
Wed 11:00:20 PM 36.7008 -87.0781 246° West 428 493 36,000  Level Memphis Center
Wed 11:01:20 PM 36.6464 -87.2250 245° Southwest 428 493 36,000  Level Memphis Center
Wed 11:02:20 PM 36.5956 -87.3642 246° West 428 493 36,000  Level Memphis Center
Wed 11:03:20 PM 36.5467 -87.5003 246° West 433 498 36,000  Level Memphis Center
Wed 11:04:20 PM 36.4975 -87.6311 245° Southwest 428 493 36,000  Level Memphis Center
Wed 11:05:20 PM 36.4461 -87.7642 244° Southwest 428 493 36,000  Level Memphis Center
Wed 11:06:20 PM 36.3989 -87.8922 245° Southwest 423 487 36,000  Level Memphis Center
Wed 11:07:20 PM 36.3492 -88.0278 246° West 428 493 36,000  Level Memphis Center
Wed 11:08:20 PM 36.3036 -88.1525 246° West 428 493 36,000  Level Memphis Center
Wed 11:09:20 PM 36.2517 -88.2878 245° Southwest 423 487 36,000  Level Memphis Center
Wed 11:10:20 PM 36.1997 -88.4178 244° Southwest 429 494 36,000  Level Memphis Center
Wed 11:11:20 PM 36.1494 -88.5475 244° Southwest 424 488 36,000  Level Memphis Center
Wed 11:12:20 PM 36.0972 -88.6794 244° Southwest 429 494 36,000  Level Memphis Center
Wed 11:13:20 PM 36.0467 -88.8117 245° Southwest 429 494 36,000  Level Memphis Center
Wed 11:14:20 PM 35.9942 -88.9408 243° Southwest 429 494 36,000  Level Memphis Center
Wed 11:15:20 PM 35.9456 -89.0725 246° West 429 494 36,000  Level Memphis Center
Wed 11:16:20 PM 35.8967 -89.2039 245° Southwest 429 494 36,000  Level Memphis Center
Wed 11:17:20 PM 35.8542 -89.3350 248° West 423 487 36,000  Level Memphis Center
Wed 11:18:20 PM 35.8092 -89.4689 248° West 418 481 36,000  Level Memphis Center
Wed 11:19:20 PM 35.7664 -89.5947 247° West 418 481 36,000  Level Memphis Center
Wed 11:20:20 PM 35.7233 -89.7281 248° West 418 481 36,000  Level Memphis Center
Wed 11:21:20 PM 35.6864 -89.8536 250° West 413 475 36,000  Level Memphis Center
Wed 11:22:20 PM 35.6431 -89.9814 247° West 404 465 36,000  Level Memphis Center
Wed 11:23:20 PM 35.5994 -90.1069 247° West 404 465 36,000  Level Memphis Center
Wed 11:24:20 PM 35.5539 -90.2369 247° West 410 472 36,000  Level Memphis Center
Wed 11:25:20 PM 35.5100 -90.3647 247° West 415 478 36,000  Level Memphis Center
Wed 11:26:20 PM 35.4661 -90.4897 247° West 415 478 36,000  Level Memphis Center
Wed 11:27:20 PM 35.4222 -90.6219 248° West 415 478 36,000  Level Memphis Center
Wed 11:28:20 PM 35.3761 -90.7492 246° West 415 478 36,000  Level Memphis Center
Wed 11:29:20 PM 35.3297 -90.8761 246° West 415 478 36,000  Level Memphis Center
Wed 11:30:20 PM 35.2853 -91.0058 247° West 415 478 36,000  Level Memphis Center
Wed 11:31:20 PM 35.2428 -91.1197 245° Southwest 420 483 36,000  Level Memphis Center
Wed 11:32:20 PM 35.1983 -91.2464 247° West 414 476 36,000 600 Level Memphis Center
Wed 11:33:20 PM 35.1492 -91.3958 248° West 423 487 37,200 1,000 Climbing Memphis Center
Wed 11:34:20 PM 35.1064 -91.5069 245° Southwest 423 487 38,000 400 Climbing Memphis Center
Wed 11:35:20 PM 35.0614 -91.6331 246° West 418 481 38,000  Level Memphis Center
Wed 11:36:20 PM 35.0142 -91.7592 245° Southwest 418 481 38,000  Level Memphis Center
Wed 11:37:20 PM 34.9689 -91.8853 246° West 418 481 38,000  Level Memphis Center
Wed 11:38:20 PM 34.9233 -92.0136 247° West 413 475 38,000  Level Memphis Center
Wed 11:39:20 PM 34.8800 -92.1367 247° West 413 475 38,000  Level Memphis Center
Wed 11:40:20 PM 34.8322 -92.2597 245° Southwest 413 475 38,000  Level Memphis Center
Wed 11:41:20 PM 34.7864 -92.3850 246° West 413 475 38,000  Level Memphis Center
Wed 11:42:20 PM 34.7386 -92.5103 245° Southwest 413 475 38,000  Level Memphis Center
Wed 11:43:20 PM 34.6967 -92.6306 247° West 406 467 38,000  Level Memphis Center
Wed 11:44:20 PM 34.6506 -92.7531 245° Southwest 406 467 38,000  Level Memphis Center
Wed 11:45:20 PM 34.6064 -92.8753 246° West 400 460 38,000  Level Memphis Center
Wed 11:46:20 PM 34.5600 -92.9975 245° Southwest 400 460 38,000  Level Memphis Center
Wed 11:47:20 PM 34.5158 -93.1172 246° West 393 452 38,000  Level Memphis Center
Wed 11:48:20 PM 34.4672 -93.2389 244° Southwest 398 458 38,000  Level Memphis Center
Wed 11:49:20 PM 34.4225 -93.3583 246° West 398 458 38,000  Level Memphis Center
Wed 11:51:14 PM 34.3344 -93.6008 246° West 396 456 38,000  Level Fort Worth Center
Wed 11:52:14 PM 34.2881 -93.7236 245° Southwest 396 456 38,000  Level Fort Worth Center
Wed 11:53:14 PM 34.2394 -93.8461 244° Southwest 401 461 38,000  Level Fort Worth Center
Wed 11:54:14 PM 34.1928 -93.9686 245° Southwest 407 468 38,000  Level Fort Worth Center
Wed 11:55:14 PM 34.1442 -94.0936 245° Southwest 407 468 38,000  Level Fort Worth Center
Wed 11:56:14 PM 34.0972 -94.2158 245° Southwest 407 468 38,000  Level Fort Worth Center
Wed 11:57:14 PM 34.0503 -94.3378 245° Southwest 407 468 38,000  Level Fort Worth Center
Wed 11:58:14 PM 34.0008 -94.4597 244° Southwest 407 468 38,000  Level Fort Worth Center
Wed 11:59:14 PM 33.9517 -94.5842 245° Southwest 407 468 38,000  Level Fort Worth Center
Thu 12:00:14 AM 33.9042 -94.7058 245° Southwest 407 468 38,000  Level Fort Worth Center
Thu 12:01:14 AM 33.8525 -94.8325 244° Southwest 407 468 38,000  Level Fort Worth Center
Thu 12:02:14 AM 33.8031 -94.9564 244° Southwest 407 468 38,000  Level Fort Worth Center
Thu 12:03:14 AM 33.7533 -95.0853 245° Southwest 412 474 38,000  Level Fort Worth Center
Thu 12:04:14 AM 33.7011 -95.2114 244° Southwest 417 480 38,000  Level Fort Worth Center
Thu 12:05:14 AM 33.6492 -95.3350 243° Southwest 417 480 38,000  Level Fort Worth Center
Thu 12:06:14 AM 33.6386 -95.4725 265° West 407 468 38,000  Level Fort Worth Center
Thu 12:07:14 AM 33.6617 -95.6042 282° West 407 468 38,000  Level Fort Worth Center
Thu 12:08:14 AM 33.6844 -95.7408 281° West 407 468 38,000  Level Fort Worth Center
Thu 12:09:14 AM 33.7028 -95.8781 279° West 412 474 38,000  Level Fort Worth Center
Thu 12:10:14 AM 33.7272 -96.0100 283° West 412 474 38,000  Level Fort Worth Center
Thu 12:11:14 AM 33.7475 -96.1444 280° West 412 474 38,000  Level Fort Worth Center
Thu 12:12:14 AM 33.7675 -96.2742 281° West 412 474 38,000  Level Fort Worth Center
Thu 12:13:14 AM 33.7853 -96.4039 279° West 412 474 38,000  Level Fort Worth Center
Thu 12:14:14 AM 33.8031 -96.5336 279° West 407 468 38,000  Level Fort Worth Center
Thu 12:15:14 AM 33.8247 -96.6633 281° West 402 463 38,000  Level Fort Worth Center
Thu 12:16:14 AM 33.8358 -96.7908 276° West 397 457 38,000  Level Fort Worth Center
Thu 12:17:14 AM 33.8572 -96.9158 282° West 391 450 38,000  Level Fort Worth Center
Thu 12:18:14 AM 33.8744 -97.0408 279° West 391 450 38,000  Level Fort Worth Center
Thu 12:19:14 AM 33.8914 -97.1633 279° West 386 444 38,000  Level Fort Worth Center
Thu 12:20:14 AM 33.9083 -97.2883 279° West 386 444 38,000  Level Fort Worth Center
Thu 12:21:14 AM 33.9250 -97.4108 279° West 381 438 38,000  Level Fort Worth Center
Thu 12:22:14 AM 33.9458 -97.5311 282° West 375 432 38,000  Level Fort Worth Center
Thu 12:23:14 AM 33.9622 -97.6564 279° West 375 432 38,000  Level Fort Worth Center
Thu 12:24:14 AM 33.9789 -97.7642 281° West 374 430 38,000  Level Fort Worth Center
Thu 12:25:14 AM 33.9950 -97.8894 279° West 374 430 38,000  Level Fort Worth Center
Thu 12:26:14 AM 34.0133 -98.0222 279° West 374 430 38,000  Level Fort Worth Center
Thu 12:27:14 AM 34.0292 -98.1478 279° West 374 430 38,000  Level Fort Worth Center
Thu 12:28:14 AM 34.0453 -98.2683 279° West 374 430 38,000  Level Fort Worth Center
Thu 12:29:14 AM 34.0589 -98.3811 278° West 378 435 38,000  Level Fort Worth Center
Thu 12:30:14 AM 34.0767 -98.5167 279° West 378 435 38,000  Level Fort Worth Center
Thu 12:31:14 AM 34.0903 -98.6322 278° West 384 442 38,000  Level Fort Worth Center
Thu 12:32:14 AM 34.1075 -98.7706 279° West 384 442 38,000  Level Fort Worth Center
Thu 12:33:14 AM 34.1208 -98.8911 278° West 384 442 38,000  Level Fort Worth Center
Thu 12:34:14 AM 34.1381 -99.0169 279° West 384 442 38,000  Level Fort Worth Center
Thu 12:35:14 AM 34.1553 -99.1353 280° West 373 429 38,000  Level Fort Worth Center
Thu 12:36:14 AM 34.1703 -99.2533 279° West 368 423 38,000  Level Fort Worth Center
Thu 12:37:14 AM 34.1831 -99.3767 277° West 368 423 38,000  Level Fort Worth Center
Thu 12:38:14 AM 34.1975 -99.5000 278° West 373 429 38,000  Level Fort Worth Center
Thu 12:39:14 AM 34.2122 -99.6211 278° West 373 429 38,000  Level Fort Worth Center
Thu 12:40:14 AM 34.2286 -99.7469 279° West 368 423 38,000  Level Fort Worth Center
Thu 12:41:14 AM 34.2431 -99.8681 278° West 368 423 38,000  Level Fort Worth Center
Thu 12:42:14 AM 34.2572 -99.9892 278° West 368 423 38,000  Level Fort Worth Center
Thu 12:43:14 AM 34.2714 -100.1150 278° West 374 430 38,000  Level Fort Worth Center
Thu 12:44:14 AM 34.2833 -100.2361 277° West 369 425 38,000  Level Fort Worth Center
Thu 12:45:14 AM 34.2992 -100.3572 279° West 369 425 38,000  Level Fort Worth Center
Thu 12:46:14 AM 34.3111 -100.4783 277° West 369 425 38,000  Level Fort Worth Center
Thu 12:47:14 AM 34.3244 -100.6072 277° West 374 430 38,000  Level Fort Worth Center
Thu 12:48:14 AM 34.3400 -100.7283 279° West 374 430 38,000  Level Fort Worth Center
Thu 12:49:14 AM 34.3556 -100.8547 279° West 374 430 38,000  Level Fort Worth Center
Thu 12:50:14 AM 34.3664 -100.9836 276° West 374 430 38,000  Level Fort Worth Center
Thu 12:51:14 AM 34.3794 -101.1100 277° West 385 443 38,000  Level Fort Worth Center
Thu 12:51:52 AM 34.3881 -101.1872 278° West 387 445 38,000  Level Albuquerque Center
Thu 12:52:53 AM 34.4019 -101.3164 277° West 387 445 38,000  Level Albuquerque Center
Thu 12:53:54 AM 34.4147 -101.4453 277° West 386 444 38,000  Level Albuquerque Center
Thu 12:54:54 AM 34.4281 -101.5717 277° West 382 440 38,000  Level Albuquerque Center
Thu 12:55:55 AM 34.4403 -101.6983 277° West 379 436 38,000  Level Albuquerque Center
Thu 12:56:56 AM 34.4536 -101.8247 277° West 378 435 38,000  Level Albuquerque Center
Thu 12:57:56 AM 34.4656 -101.9486 277° West 371 427 38,000  Level Albuquerque Center
Thu 12:58:57 AM 34.4786 -102.0728 277° West 371 427 38,000  Level Albuquerque Center
Thu 12:59:58 AM 34.4906 -102.1981 277° West 372 428 38,000  Level Albuquerque Center
Thu 01:00:58 AM 34.5033 -102.3233 277° West 373 429 38,000  Level Albuquerque Center
Thu 01:01:59 AM 34.5142 -102.4481 276° West 372 428 38,000  Level Albuquerque Center
Thu 01:03:00 AM 34.5267 -102.5731 277° West 373 429 38,000  Level Albuquerque Center
Thu 01:04:00 AM 34.5400 -102.7172 276° West 370 426 38,000  Level Albuquerque Center
Thu 01:05:01 AM 34.5533 -102.8417 277° West 369 425 38,000  Level Albuquerque Center
Thu 01:06:01 AM 34.5628 -102.9669 275° West 370 426 38,000  Level Albuquerque Center
Thu 01:07:02 AM 34.5747 -103.0931 277° West 371 427 38,000  Level Albuquerque Center
Thu 01:08:03 AM 34.5856 -103.2200 276° West 374 430 38,000  Level Albuquerque Center
Thu 01:09:03 AM 34.5947 -103.3261 276° West 375 432 38,000  Level Albuquerque Center
Thu 01:10:04 AM 34.6067 -103.4542 277° West 377 434 38,000  Level Albuquerque Center
Thu 01:11:05 AM 34.6178 -103.5828 276° West 378 435 38,000  Level Albuquerque Center
Thu 01:12:05 AM 34.6281 -103.7114 276° West 379 436 38,000  Level Albuquerque Center
Thu 01:13:06 AM 34.6392 -103.8394 276° West 378 435 38,000  Level Albuquerque Center
Thu 01:14:06 AM 34.6497 -103.9681 276° West 378 435 38,000  Level Albuquerque Center
Thu 01:15:07 AM 34.6594 -104.0956 275° West 376 433 38,000  Level Albuquerque Center
Thu 01:16:08 AM 34.6703 -104.2222 276° West 374 430 38,000  Level Albuquerque Center
Thu 01:17:08 AM 34.6797 -104.3497 275° West 374 430 38,000  Level Albuquerque Center
Thu 01:18:09 AM 34.6900 -104.4778 276° West 375 432 38,000  Level Albuquerque Center
Thu 01:19:09 AM 34.7003 -104.6064 276° West 379 436 38,000  Level Albuquerque Center
Thu 01:20:10 AM 34.7114 -104.7358 276° West 381 438 38,000  Level Albuquerque Center
Thu 01:21:11 AM 34.7203 -104.8661 275° West 382 440 38,000  Level Albuquerque Center
Thu 01:22:11 AM 34.7306 -104.9983 275° West 387 445 38,000  Level Albuquerque Center
Thu 01:24:12 AM 34.7506 -105.2644 275° West 392 451 38,000  Level Albuquerque Center
Thu 01:25:13 AM 34.7606 -105.3972 275° West 392 451 38,000  Level Albuquerque Center
Thu 01:26:13 AM 34.7689 -105.5300 274° West 391 450 38,000  Level Albuquerque Center
Thu 01:27:14 AM 34.7783 -105.6631 275° West 392 451 38,000  Level Albuquerque Center
Thu 01:28:14 AM 34.7867 -105.7969 274° West 393 452 38,000  Level Albuquerque Center
Thu 01:29:15 AM 34.7972 -105.9300 276° West 392 451 38,000  Level Albuquerque Center
Thu 01:30:15 AM 34.8036 -106.0642 273° West 393 452 38,000  Level Albuquerque Center
Thu 01:31:16 AM 34.8133 -106.1983 275° West 394 453 38,000  Level Albuquerque Center
Thu 01:32:16 AM 34.8211 -106.3344 274° West 394 453 38,000  Level Albuquerque Center
Thu 01:33:17 AM 34.8219 -106.4656 270° West 389 448 38,000  Level Albuquerque Center
Thu 01:34:17 AM 34.8178 -106.5994 268° West 391 450 38,000  Level Albuquerque Center
Thu 01:35:18 AM 34.8161 -106.7358 269° West 396 456 38,000  Level Albuquerque Center
Thu 01:36:19 AM 34.8136 -106.8733 269° West 400 460 38,000  Level Albuquerque Center
Thu 01:37:19 AM 34.8092 -107.0114 268° West 404 465 38,000  Level Albuquerque Center
Thu 01:38:19 AM 34.8064 -107.1461 269° West 399 459 38,000  Level Albuquerque Center
Thu 01:39:20 AM 34.8025 -107.2822 268° West 399 459 38,000  Level Albuquerque Center
Thu 01:40:20 AM 34.7992 -107.4167 268° West 398 458 38,000  Level Albuquerque Center
Thu 01:41:21 AM 34.7956 -107.5503 268° West 396 456 38,000  Level Albuquerque Center
Thu 01:42:21 AM 34.7911 -107.6836 268° West 395 455 38,000  Level Albuquerque Center
Thu 01:43:22 AM 34.7881 -107.8183 268° West 397 457 38,000  Level Albuquerque Center
Thu 01:44:22 AM 34.7836 -107.9525 268° West 397 457 38,000  Level Albuquerque Center
Thu 01:45:23 AM 34.7797 -108.0881 268° West 399 459 38,000  Level Albuquerque Center
Thu 01:46:23 AM 34.7750 -108.2236 268° West 401 461 38,000  Level Albuquerque Center
Thu 01:47:24 AM 34.7694 -108.3600 267° West 402 463 38,000  Level Albuquerque Center
Thu 01:48:24 AM 34.7656 -108.5019 268° West 405 466 38,000  Level Albuquerque Center
Thu 01:49:25 AM 34.7614 -108.6325 268° West 405 466 38,000  Level Albuquerque Center
Thu 01:50:25 AM 34.7556 -108.7853 267° West 404 465 38,000  Level Albuquerque Center
Thu 01:51:26 AM 34.7494 -108.9172 267° West 406 467 38,000  Level Albuquerque Center
Thu 01:52:26 AM 34.7447 -109.0494 268° West 407 468 38,000  Level Albuquerque Center
Thu 01:53:26 AM 34.7403 -109.1794 268° West 404 465 38,000  Level Albuquerque Center
Thu 01:54:27 AM 34.7089 -109.3275 256° West 401 461 38,000  Level Albuquerque Center
Thu 01:55:27 AM 34.6628 -109.4475 245° Southwest 408 470 38,000  Level Albuquerque Center
Thu 01:56:28 AM 34.6169 -109.5622 244° Southwest 401 461 38,000  Level Albuquerque Center
Thu 01:57:28 AM 34.5631 -109.7003 245° Southwest 403 464 38,000  Level Albuquerque Center
Thu 01:58:29 AM 34.5172 -109.8197 245° Southwest 406 467 38,000  Level Albuquerque Center
Thu 01:59:30 AM 34.4700 -109.9375 244° Southwest 406 467 38,000  Level Albuquerque Center
Thu 02:00:30 AM 34.4247 -110.0564 245° Southwest 405 466 38,000 -1,200 Level Albuquerque Center
Thu 02:01:30 AM 34.3700 -110.1911 244° Southwest 402 463 35,600 -2,579 Descending Albuquerque Center
Thu 02:02:31 AM 34.3244 -110.3081 245° Southwest 400 460 32,800 -2,678 Descending Albuquerque Center
Thu 02:03:31 AM 34.2794 -110.4253 245° Southwest 414 476 30,200 -2,500 Descending Albuquerque Center
Thu 02:04:31 AM 34.2239 -110.5550 243° Southwest 423 487 27,800 -2,281 Descending Albuquerque Center
Thu 02:05:32 AM 34.1778 -110.6733 245° Southwest 403 464 25,600 -2,182 Descending Albuquerque Center
Thu 02:06:32 AM 34.1333 -110.7850 244° Southwest 389 448 23,400 -2,132 Descending Albuquerque Center
Thu 02:07:33 AM 34.0869 -110.8969 243° Southwest 377 434 21,300 -2,132 Descending Albuquerque Center
Thu 02:08:33 AM 34.0444 -111.0072 245° Southwest 371 427 19,100 -2,100 Descending Albuquerque Center
Thu 02:09:33 AM 34.0003 -111.1119 243° Southwest 358 412 17,100 -2,033 Descending Albuquerque Center
Thu 02:10:34 AM 33.9600 -111.2139 245° Southwest 343 395 15,000 -1,785 Descending Albuquerque Center
Thu 02:11:34 AM 33.9189 -111.3142 244° Southwest 335 386 13,500 -1,400 Descending Albuquerque Center
Thu 02:12:34 AM 33.8736 -111.4103 240° Southwest 332 382 12,200 -1,339 Descending Albuquerque Center
Thu 02:13:35 AM 33.8003 -111.4747 216° Southwest 325 374 10,800 -1,140 Descending Albuquerque Center
Thu 02:14:35 AM 33.7300 -111.5356 216° Southwest 315 362 9,900 -1,000 Descending Albuquerque Center
Thu 02:15:35 AM 33.6642 -111.5914 215° Southwest 296 341 8,800 -1,140 Descending Albuquerque Center
Thu 02:16:36 AM 33.6014 -111.6447 215° Southwest 280 322 7,600 -942 Descending Albuquerque Center
Thu 02:17:36 AM 33.5431 -111.6936 215° Southwest 262 302 6,900 -850 Descending Albuquerque Center
Thu 02:18:36 AM 33.4917 -111.7369 215° Southwest 235 270 5,900 -942 Descending Albuquerque Center
Thu 02:19:37 AM 33.4439 -111.7836 219° Southwest 223 257 5,000 -1,091 Descending Albuquerque Center
Thu 02:20:37 AM 33.4339 -111.8475 259° West 202 232 3,700 -1,200 Descending Albuquerque Center
Thu 02:21:37 AM 33.4308 -111.9061 266° West 190 219 2,600 -950 Descending Albuquerque Center
Thu 02:22:37 AM 33.4325 -111.9522 272° West 166 191 1,800 -645 Descending Albuquerque Center
Thu 02:23:38 AM 33.4325 -112.0050 270° West 154 177 1,300 -492 Descending Albuquerque Center
Thu 02:25:00 AM 33.4333 -112.0000 90° East  Level FlightAware Approximate

Login

Don't have an account? Register now (free) for customized features, flight alerts, and more!